Aviation Digital Data Service (ADDS)

Output produced by METARs form (0342 UTC 26 June 2019)
found at http://www.aviationweather.gov/metar/data/
 
Forecast for: UUMO (OSTAFYEVO INTL , RU)
Text: TAF UUMO 260211Z 2603/2612 31003MPS 9999 SCT030
Forecast period: 0300 to 1200 UTC 26 June 2019
Forecast type: FROM: standard forecast or significant change
Winds: from the NW (310 degrees) at 7 MPH (6 knots; 3.1 m/s)
Visibility: 6 or more miles 10+ km)
Ceiling: at least 12,000 feet AGL
Clouds: scattered clouds at 3000 feet AGL
Weather: no significant weather forecast for this period
Text: TEMPO 2606/2612 -SHRA SCT030CB
Forecast period: 0600 to 1200 UTC 26 June 2019
Forecast type: TEMPORARY: The following changes expected for less than half the time period
Visibility: missing
Ceiling: at least 12,000 feet AGL
Clouds: scattered clouds at 3000 feet AGL
Weather: -SHRA  (light rain showers)